sensor_id;sensor_type;location;lat;lon;timestamp;temperature;humidity
59999;DHT22;45859;51.378;6.736;2023-02-11T00:01:36;6.90;99.90
59999;DHT22;45859;51.378;6.736;2023-02-11T00:04:03;7.00;99.90
59999;DHT22;45859;51.378;6.736;2023-02-11T00:06:31;7.00;99.90
59999;DHT22;45859;51.378;6.736;2023-02-11T00:08:57;6.90;99.90
59999;DHT22;45859;51.378;6.736;2023-02-11T00:11:24;6.90;99.90
59999;DHT22;45859;51.378;6.736;2023-02-11T00:13:51;7.00;99.90
59999;DHT22;45859;51.378;6.736;2023-02-11T00:16:19;7.00;99.90
59999;DHT22;45859;51.378;6.736;2023-02-11T00:18:45;7.10;99.90
59999;DHT22;45859;51.378;6.736;2023-02-11T00:21:14;7.10;99.90
59999;DHT22;45859;51.378;6.736;2023-02-11T00:23:41;7.10;99.90
59999;DHT22;45859;51.378;6.736;2023-02-11T00:26:21;7.10;99.90
59999;DHT22;45859;51.378;6.736;2023-02-11T00:28:48;7.10;99.90
59999;DHT22;45859;51.378;6.736;2023-02-11T00:31:16;7.10;99.90
59999;DHT22;45859;51.378;6.736;2023-02-11T00:33:42;7.10;99.90
59999;DHT22;45859;51.378;6.736;2023-02-11T00:36:12;7.10;99.90
59999;DHT22;45859;51.378;6.736;2023-02-11T00:38:39;7.20;99.90
59999;DHT22;45859;51.378;6.736;2023-02-11T00:41:04;7.20;99.90
59999;DHT22;45859;51.378;6.736;2023-02-11T00:43:30;7.20;99.90
59999;DHT22;45859;51.378;6.736;2023-02-11T00:45:56;7.20;99.90
59999;DHT22;45859;51.378;6.736;2023-02-11T00:48:21;7.20;99.90
59999;DHT22;45859;51.378;6.736;2023-02-11T00:50:47;7.20;99.90
59999;DHT22;45859;51.378;6.736;2023-02-11T00:53:13;7.20;99.90
59999;DHT22;45859;51.378;6.736;2023-02-11T00:55:38;7.20;99.90
59999;DHT22;45859;51.378;6.736;2023-02-11T00:58:04;7.20;99.90
59999;DHT22;45859;51.378;6.736;2023-02-11T01:00:30;7.10;99.90
59999;DHT22;45859;51.378;6.736;2023-02-11T01:02:55;7.20;99.90
59999;DHT22;45859;51.378;6.736;2023-02-11T01:05:21;7.10;99.90
59999;DHT22;45859;51.378;6.736;2023-02-11T01:07:47;7.10;99.90
59999;DHT22;45859;51.378;6.736;2023-02-11T01:10:13;7.20;99.90
59999;DHT22;45859;51.378;6.736;2023-02-11T01:12:39;7.20;99.90
59999;DHT22;45859;51.378;6.736;2023-02-11T01:15:06;7.10;99.90
59999;DHT22;45859;51.378;6.736;2023-02-11T01:17:34;7.20;99.90
59999;DHT22;45859;51.378;6.736;2023-02-11T01:20:10;7.20;99.90
59999;DHT22;45859;51.378;6.736;2023-02-11T01:22:36;7.10;99.90
59999;DHT22;45859;51.378;6.736;2023-02-11T01:25:06;7.10;99.90
59999;DHT22;45859;51.378;6.736;2023-02-11T01:27:33;7.20;99.90
59999;DHT22;45859;51.378;6.736;2023-02-11T01:29:59;7.10;99.90
59999;DHT22;45859;51.378;6.736;2023-02-11T01:32:24;7.10;99.90
59999;DHT22;45859;51.378;6.736;2023-02-11T01:34:50;7.10;99.90
59999;DHT22;45859;51.378;6.736;2023-02-11T01:37:16;7.10;99.90
59999;DHT22;45859;51.378;6.736;2023-02-11T01:39:41;7.10;99.90
59999;DHT22;45859;51.378;6.736;2023-02-11T01:42:12;7.10;99.90
59999;DHT22;45859;51.378;6.736;2023-02-11T01:44:38;7.40;99.90
59999;DHT22;45859;51.378;6.736;2023-02-11T01:47:05;7.00;99.90
59999;DHT22;45859;51.378;6.736;2023-02-11T01:49:33;7.10;99.90
59999;DHT22;45859;51.378;6.736;2023-02-11T01:54:58;7.00;99.90
59999;DHT22;45859;51.378;6.736;2023-02-11T01:57:46;7.00;99.90
59999;DHT22;45859;51.378;6.736;2023-02-11T02:00:23;7.00;99.90
59999;DHT22;45859;51.378;6.736;2023-02-11T02:02:57;7.00;99.90
59999;DHT22;45859;51.378;6.736;2023-02-11T02:06:00;7.00;99.90
59999;DHT22;45859;51.378;6.736;2023-02-11T02:08:31;7.00;99.90
59999;DHT22;45859;51.378;6.736;2023-02-11T02:10:59;6.90;99.90
59999;DHT22;45859;51.378;6.736;2023-02-11T02:13:27;6.90;99.90
59999;DHT22;45859;51.378;6.736;2023-02-11T02:16:00;6.90;99.90
59999;DHT22;45859;51.378;6.736;2023-02-11T02:37:58;6.70;99.90
59999;DHT22;45859;51.378;6.736;2023-02-11T02:40:32;6.80;99.90
59999;DHT22;45859;51.378;6.736;2023-02-11T02:43:00;6.70;99.90
59999;DHT22;45859;51.378;6.736;2023-02-11T02:45:27;6.70;99.90
59999;DHT22;45859;51.378;6.736;2023-02-11T02:47:53;6.70;99.90
59999;DHT22;45859;51.378;6.736;2023-02-11T02:50:21;6.70;99.90
59999;DHT22;45859;51.378;6.736;2023-02-11T02:52:59;6.70;99.90
59999;DHT22;45859;51.378;6.736;2023-02-11T02:55:57;6.70;99.90
59999;DHT22;45859;51.378;6.736;2023-02-11T03:04:50;6.70;99.90
59999;DHT22;45859;51.378;6.736;2023-02-11T03:12:22;6.70;99.90
59999;DHT22;45859;51.378;6.736;2023-02-11T03:14:50;6.80;99.90
59999;DHT22;45859;51.378;6.736;2023-02-11T03:17:17;6.70;99.90
59999;DHT22;45859;51.378;6.736;2023-02-11T03:19:45;6.80;99.90
59999;DHT22;45859;51.378;6.736;2023-02-11T03:22:19;6.70;99.90
59999;DHT22;45859;51.378;6.736;2023-02-11T03:24:45;6.70;99.90
59999;DHT22;45859;51.378;6.736;2023-02-11T03:27:28;6.70;99.90
59999;DHT22;45859;51.378;6.736;2023-02-11T03:32:35;6.70;99.90
59999;DHT22;45859;51.378;6.736;2023-02-11T03:35:10;6.80;99.90
59999;DHT22;45859;51.378;6.736;2023-02-11T03:37:44;6.70;99.90
59999;DHT22;45859;51.378;6.736;2023-02-11T03:40:20;6.70;99.90
59999;DHT22;45859;51.378;6.736;2023-02-11T03:42:53;6.70;99.90
59999;DHT22;45859;51.378;6.736;2023-02-11T03:45:21;6.70;99.90
59999;DHT22;45859;51.378;6.736;2023-02-11T03:47:55;6.70;99.90
59999;DHT22;45859;51.378;6.736;2023-02-11T03:50:22;6.70;99.90
59999;DHT22;45859;51.378;6.736;2023-02-11T03:52:49;6.70;99.90
59999;DHT22;45859;51.378;6.736;2023-02-11T03:55:18;6.70;99.90
59999;DHT22;45859;51.378;6.736;2023-02-11T03:57:44;6.70;99.90
59999;DHT22;45859;51.378;6.736;2023-02-11T04:00:10;6.70;99.90
59999;DHT22;45859;51.378;6.736;2023-02-11T04:02:36;6.80;99.90
59999;DHT22;45859;51.378;6.736;2023-02-11T04:05:03;6.70;99.90
59999;DHT22;45859;51.378;6.736;2023-02-11T04:07:29;6.70;99.90
59999;DHT22;45859;51.378;6.736;2023-02-11T04:09:55;6.70;99.90
59999;DHT22;45859;51.378;6.736;2023-02-11T04:12:20;6.70;99.90
59999;DHT22;45859;51.378;6.736;2023-02-11T04:14:46;6.70;99.90
59999;DHT22;45859;51.378;6.736;2023-02-11T04:17:12;6.70;99.90
59999;DHT22;45859;51.378;6.736;2023-02-11T04:19:37;6.70;99.90
59999;DHT22;45859;51.378;6.736;2023-02-11T04:22:03;6.70;99.90
59999;DHT22;45859;51.378;6.736;2023-02-11T04:24:29;6.70;99.90
59999;DHT22;45859;51.378;6.736;2023-02-11T04:26:55;6.70;99.90
59999;DHT22;45859;51.378;6.736;2023-02-11T04:29:21;6.70;99.90
59999;DHT22;45859;51.378;6.736;2023-02-11T04:31:46;6.70;99.90
59999;DHT22;45859;51.378;6.736;2023-02-11T04:34:12;6.60;99.90
59999;DHT22;45859;51.378;6.736;2023-02-11T04:36:38;6.60;99.90
59999;DHT22;45859;51.378;6.736;2023-02-11T04:39:04;6.60;99.90
59999;DHT22;45859;51.378;6.736;2023-02-11T04:41:29;6.70;99.90
59999;DHT22;45859;51.378;6.736;2023-02-11T04:43:55;6.60;99.90
59999;DHT22;45859;51.378;6.736;2023-02-11T04:46:21;6.60;99.90
59999;DHT22;45859;51.378;6.736;2023-02-11T04:48:46;6.60;99.90
59999;DHT22;45859;51.378;6.736;2023-02-11T04:51:12;6.60;99.90
59999;DHT22;45859;51.378;6.736;2023-02-11T04:53:37;6.60;99.90
59999;DHT22;45859;51.378;6.736;2023-02-11T04:56:03;6.60;99.90
59999;DHT22;45859;51.378;6.736;2023-02-11T04:58:29;6.50;99.90
59999;DHT22;45859;51.378;6.736;2023-02-11T05:00:54;6.50;99.90
59999;DHT22;45859;51.378;6.736;2023-02-11T05:03:20;7.10;99.90
59999;DHT22;45859;51.378;6.736;2023-02-11T05:05:46;6.50;99.90
59999;DHT22;45859;51.378;6.736;2023-02-11T05:08:12;6.50;99.90
59999;DHT22;45859;51.378;6.736;2023-02-11T05:10:37;6.40;99.90
59999;DHT22;45859;51.378;6.736;2023-02-11T05:13:03;6.40;99.90
59999;DHT22;45859;51.378;6.736;2023-02-11T05:15:29;6.40;99.90
59999;DHT22;45859;51.378;6.736;2023-02-11T05:17:55;6.40;99.90
59999;DHT22;45859;51.378;6.736;2023-02-11T05:20:21;6.40;99.90
59999;DHT22;45859;51.378;6.736;2023-02-11T05:22:46;6.40;99.90
59999;DHT22;45859;51.378;6.736;2023-02-11T05:25:12;6.30;99.90
59999;DHT22;45859;51.378;6.736;2023-02-11T05:27:38;6.40;99.90
59999;DHT22;45859;51.378;6.736;2023-02-11T05:30:05;6.30;99.90
59999;DHT22;45859;51.378;6.736;2023-02-11T05:32:30;6.30;99.90
59999;DHT22;45859;51.378;6.736;2023-02-11T05:34:56;6.30;99.90
59999;DHT22;45859;51.378;6.736;2023-02-11T05:37:22;6.30;99.90
59999;DHT22;45859;51.378;6.736;2023-02-11T05:39:47;6.30;99.90
59999;DHT22;45859;51.378;6.736;2023-02-11T05:42:13;6.30;99.90
59999;DHT22;45859;51.378;6.736;2023-02-11T05:44:39;6.30;99.90
59999;DHT22;45859;51.378;6.736;2023-02-11T05:47:05;7.00;99.90
59999;DHT22;45859;51.378;6.736;2023-02-11T05:49:33;6.40;99.90
59999;DHT22;45859;51.378;6.736;2023-02-11T05:51:59;6.40;99.90
59999;DHT22;45859;51.378;6.736;2023-02-11T05:54:24;6.40;99.90
59999;DHT22;45859;51.378;6.736;2023-02-11T05:56:50;6.30;99.90
59999;DHT22;45859;51.378;6.736;2023-02-11T05:59:16;6.40;99.90
59999;DHT22;45859;51.378;6.736;2023-02-11T06:01:41;7.10;99.90
59999;DHT22;45859;51.378;6.736;2023-02-11T06:04:07;6.40;99.90
59999;DHT22;45859;51.378;6.736;2023-02-11T06:06:33;6.40;99.90
59999;DHT22;45859;51.378;6.736;2023-02-11T06:08:58;6.40;99.90
59999;DHT22;45859;51.378;6.736;2023-02-11T06:11:24;6.40;99.90
59999;DHT22;45859;51.378;6.736;2023-02-11T06:13:50;6.50;99.90
59999;DHT22;45859;51.378;6.736;2023-02-11T06:16:15;6.50;99.90
59999;DHT22;45859;51.378;6.736;2023-02-11T06:18:41;6.50;99.90
59999;DHT22;45859;51.378;6.736;2023-02-11T06:21:08;6.50;99.90
59999;DHT22;45859;51.378;6.736;2023-02-11T06:23:34;6.50;99.90
59999;DHT22;45859;51.378;6.736;2023-02-11T06:26:07;6.50;99.90
59999;DHT22;45859;51.378;6.736;2023-02-11T06:28:34;6.50;99.90
59999;DHT22;45859;51.378;6.736;2023-02-11T06:31:04;6.50;99.90
59999;DHT22;45859;51.378;6.736;2023-02-11T06:33:34;6.50;99.90
59999;DHT22;45859;51.378;6.736;2023-02-11T06:36:00;6.50;99.90
59999;DHT22;45859;51.378;6.736;2023-02-11T06:38:25;6.50;99.90
59999;DHT22;45859;51.378;6.736;2023-02-11T06:40:51;6.50;99.90
59999;DHT22;45859;51.378;6.736;2023-02-11T06:43:17;6.60;99.90
59999;DHT22;45859;51.378;6.736;2023-02-11T06:45:42;6.60;99.90
59999;DHT22;45859;51.378;6.736;2023-02-11T06:48:08;6.60;99.90
59999;DHT22;45859;51.378;6.736;2023-02-11T06:50:34;6.60;99.90
59999;DHT22;45859;51.378;6.736;2023-02-11T06:52:59;6.60;99.90
59999;DHT22;45859;51.378;6.736;2023-02-11T06:55:25;6.60;99.90
59999;DHT22;45859;51.378;6.736;2023-02-11T06:57:51;6.60;99.90
59999;DHT22;45859;51.378;6.736;2023-02-11T07:00:16;6.60;99.90
59999;DHT22;45859;51.378;6.736;2023-02-11T07:02:42;6.60;99.90
59999;DHT22;45859;51.378;6.736;2023-02-11T07:05:08;6.60;99.90
59999;DHT22;45859;51.378;6.736;2023-02-11T07:07:34;6.60;99.90
59999;DHT22;45859;51.378;6.736;2023-02-11T07:10:01;6.60;99.90
59999;DHT22;45859;51.378;6.736;2023-02-11T07:12:28;6.50;99.90
59999;DHT22;45859;51.378;6.736;2023-02-11T07:14:55;6.60;99.90
59999;DHT22;45859;51.378;6.736;2023-02-11T07:17:21;6.50;99.90
59999;DHT22;45859;51.378;6.736;2023-02-11T07:19:46;6.60;99.90
59999;DHT22;45859;51.378;6.736;2023-02-11T07:22:12;6.60;99.90
59999;DHT22;45859;51.378;6.736;2023-02-11T07:24:37;6.60;99.90
59999;DHT22;45859;51.378;6.736;2023-02-11T07:27:03;6.60;99.90
59999;DHT22;45859;51.378;6.736;2023-02-11T07:29:29;6.70;99.90
59999;DHT22;45859;51.378;6.736;2023-02-11T07:31:54;6.70;99.90
59999;DHT22;45859;51.378;6.736;2023-02-11T07:34:20;6.80;99.90
59999;DHT22;45859;51.378;6.736;2023-02-11T07:36:45;6.70;99.90
59999;DHT22;45859;51.378;6.736;2023-02-11T07:39:13;6.70;99.90
59999;DHT22;45859;51.378;6.736;2023-02-11T07:41:39;6.70;99.90
59999;DHT22;45859;51.378;6.736;2023-02-11T07:44:05;6.70;99.90
59999;DHT22;45859;51.378;6.736;2023-02-11T07:46:31;6.70;99.90
59999;DHT22;45859;51.378;6.736;2023-02-11T07:48:57;6.70;99.90
59999;DHT22;45859;51.378;6.736;2023-02-11T07:51:24;6.70;99.90
59999;DHT22;45859;51.378;6.736;2023-02-11T07:53:51;6.70;99.90
59999;DHT22;45859;51.378;6.736;2023-02-11T07:56:18;6.70;99.90
59999;DHT22;45859;51.378;6.736;2023-02-11T07:58:45;6.70;99.90
59999;DHT22;45859;51.378;6.736;2023-02-11T08:01:15;6.80;99.90
59999;DHT22;45859;51.378;6.736;2023-02-11T08:03:41;6.80;99.90
59999;DHT22;45859;51.378;6.736;2023-02-11T08:06:12;6.90;99.90
59999;DHT22;45859;51.378;6.736;2023-02-11T08:08:38;6.80;99.90
59999;DHT22;45859;51.378;6.736;2023-02-11T08:11:22;6.90;99.90
59999;DHT22;45859;51.378;6.736;2023-02-11T08:13:49;6.90;99.90
59999;DHT22;45859;51.378;6.736;2023-02-11T08:18:45;6.90;99.90
59999;DHT22;45859;51.378;6.736;2023-02-11T08:21:11;7.00;99.90
59999;DHT22;45859;51.378;6.736;2023-02-11T08:23:38;6.90;99.90
59999;DHT22;45859;51.378;6.736;2023-02-11T08:26:06;7.00;99.90
59999;DHT22;45859;51.378;6.736;2023-02-11T08:28:37;7.00;99.90
59999;DHT22;45859;51.378;6.736;2023-02-11T08:31:07;7.00;99.90
59999;DHT22;45859;51.378;6.736;2023-02-11T08:33:33;7.10;99.90
59999;DHT22;45859;51.378;6.736;2023-02-11T08:35:59;7.10;99.90
59999;DHT22;45859;51.378;6.736;2023-02-11T08:38:25;7.10;99.90
59999;DHT22;45859;51.378;6.736;2023-02-11T08:40:51;7.10;99.90
59999;DHT22;45859;51.378;6.736;2023-02-11T08:43:17;7.20;99.90
59999;DHT22;45859;51.378;6.736;2023-02-11T08:45:43;7.20;99.90
59999;DHT22;45859;51.378;6.736;2023-02-11T08:48:09;7.20;99.90
59999;DHT22;45859;51.378;6.736;2023-02-11T08:50:38;7.20;99.90
59999;DHT22;45859;51.378;6.736;2023-02-11T08:53:04;7.30;99.90
59999;DHT22;45859;51.378;6.736;2023-02-11T08:55:29;7.20;99.90
59999;DHT22;45859;51.378;6.736;2023-02-11T08:57:55;7.20;99.90
59999;DHT22;45859;51.378;6.736;2023-02-11T09:00:21;7.20;99.90
59999;DHT22;45859;51.378;6.736;2023-02-11T09:02:47;7.20;99.90
59999;DHT22;45859;51.378;6.736;2023-02-11T09:05:13;7.20;99.90
59999;DHT22;45859;51.378;6.736;2023-02-11T09:07:38;7.30;99.90
59999;DHT22;45859;51.378;6.736;2023-02-11T09:10:04;7.20;99.90
59999;DHT22;45859;51.378;6.736;2023-02-11T09:12:31;7.30;99.90
59999;DHT22;45859;51.378;6.736;2023-02-11T09:14:56;7.40;99.90
59999;DHT22;45859;51.378;6.736;2023-02-11T09:17:22;7.40;99.90
59999;DHT22;45859;51.378;6.736;2023-02-11T09:19:48;7.40;99.90
59999;DHT22;45859;51.378;6.736;2023-02-11T09:22:14;7.50;99.90
59999;DHT22;45859;51.378;6.736;2023-02-11T09:24:39;7.50;99.90
59999;DHT22;45859;51.378;6.736;2023-02-11T09:27:05;7.40;99.90
59999;DHT22;45859;51.378;6.736;2023-02-11T09:29:31;7.50;99.90
59999;DHT22;45859;51.378;6.736;2023-02-11T09:31:57;7.50;99.90
59999;DHT22;45859;51.378;6.736;2023-02-11T09:34:22;7.50;99.90
59999;DHT22;45859;51.378;6.736;2023-02-11T09:36:48;7.50;99.90
59999;DHT22;45859;51.378;6.736;2023-02-11T09:39:18;7.50;99.90
59999;DHT22;45859;51.378;6.736;2023-02-11T09:41:48;7.70;99.90
59999;DHT22;45859;51.378;6.736;2023-02-11T09:44:21;7.70;99.90
59999;DHT22;45859;51.378;6.736;2023-02-11T09:47:02;7.70;99.90
59999;DHT22;45859;51.378;6.736;2023-02-11T09:49:59;7.70;99.90
59999;DHT22;45859;51.378;6.736;2023-02-11T09:52:46;7.80;99.90
59999;DHT22;45859;51.378;6.736;2023-02-11T09:55:28;7.80;99.90
59999;DHT22;45859;51.378;6.736;2023-02-11T09:57:55;8.00;99.90
59999;DHT22;45859;51.378;6.736;2023-02-11T10:00:27;7.90;99.90
59999;DHT22;45859;51.378;6.736;2023-02-11T10:06:12;8.00;99.90
59999;DHT22;45859;51.378;6.736;2023-02-11T10:15:00;8.00;99.90
59999;DHT22;45859;51.378;6.736;2023-02-11T10:20:17;8.10;99.90
59999;DHT22;45859;51.378;6.736;2023-02-11T10:22:53;8.10;99.90
59999;DHT22;45859;51.378;6.736;2023-02-11T10:25:27;8.00;99.90
59999;DHT22;45859;51.378;6.736;2023-02-11T10:27:56;8.00;99.90
59999;DHT22;45859;51.378;6.736;2023-02-11T10:30:32;8.10;99.90
59999;DHT22;45859;51.378;6.736;2023-02-11T10:35:39;8.00;99.90
59999;DHT22;45859;51.378;6.736;2023-02-11T10:38:08;8.00;99.90
59999;DHT22;45859;51.378;6.736;2023-02-11T10:40:34;8.00;99.90
59999;DHT22;45859;51.378;6.736;2023-02-11T10:43:05;8.20;99.90
59999;DHT22;45859;51.378;6.736;2023-02-11T10:48:37;8.20;99.90
59999;DHT22;45859;51.378;6.736;2023-02-11T10:53:45;8.20;99.90
59999;DHT22;45859;51.378;6.736;2023-02-11T10:56:20;8.30;99.90
59999;DHT22;45859;51.378;6.736;2023-02-11T11:01:51;8.40;99.90
59999;DHT22;45859;51.378;6.736;2023-02-11T11:06:56;8.40;99.90
59999;DHT22;45859;51.378;6.736;2023-02-11T11:09:34;8.40;99.90
59999;DHT22;45859;51.378;6.736;2023-02-11T11:14:58;8.40;99.90
59999;DHT22;45859;51.378;6.736;2023-02-11T11:17:24;8.40;99.90
59999;DHT22;45859;51.378;6.736;2023-02-11T11:20:10;8.50;99.90
59999;DHT22;45859;51.378;6.736;2023-02-11T11:22:38;8.40;99.90
59999;DHT22;45859;51.378;6.736;2023-02-11T11:25:05;8.40;99.90
59999;DHT22;45859;51.378;6.736;2023-02-11T11:27:50;8.30;99.90
59999;DHT22;45859;51.378;6.736;2023-02-11T11:30:17;8.40;99.90
59999;DHT22;45859;51.378;6.736;2023-02-11T11:32:44;8.40;99.90
59999;DHT22;45859;51.378;6.736;2023-02-11T11:35:29;8.40;99.90
59999;DHT22;45859;51.378;6.736;2023-02-11T11:38:01;8.40;99.90
59999;DHT22;45859;51.378;6.736;2023-02-11T11:40:30;8.50;99.90
59999;DHT22;45859;51.378;6.736;2023-02-11T11:45:30;8.60;99.90
59999;DHT22;45859;51.378;6.736;2023-02-11T11:48:11;8.60;99.90
59999;DHT22;45859;51.378;6.736;2023-02-11T11:51:23;8.70;99.90
59999;DHT22;45859;51.378;6.736;2023-02-11T11:53:34;8.70;99.90
59999;DHT22;45859;51.378;6.736;2023-02-11T11:56:20;8.70;99.90
59999;DHT22;45859;51.378;6.736;2023-02-11T11:58:47;8.80;99.90
59999;DHT22;45859;51.378;6.736;2023-02-11T12:15:36;8.80;99.90
59999;DHT22;45859;51.378;6.736;2023-02-11T12:20:54;9.00;99.90
59999;DHT22;45859;51.378;6.736;2023-02-11T12:28:52;9.30;99.90
59999;DHT22;45859;51.378;6.736;2023-02-11T12:36:45;9.30;99.90
59999;DHT22;45859;51.378;6.736;2023-02-11T12:39:49;9.30;99.90
59999;DHT22;45859;51.378;6.736;2023-02-11T12:50:48;9.10;99.90
59999;DHT22;45859;51.378;6.736;2023-02-11T12:56:02;9.10;99.90
59999;DHT22;45859;51.378;6.736;2023-02-11T12:58:32;9.10;99.90
59999;DHT22;45859;51.378;6.736;2023-02-11T13:01:47;9.10;99.90
59999;DHT22;45859;51.378;6.736;2023-02-11T13:03:58;9.20;99.90
59999;DHT22;45859;51.378;6.736;2023-02-11T13:06:40;9.20;99.90
59999;DHT22;45859;51.378;6.736;2023-02-11T13:09:15;9.20;99.90
59999;DHT22;45859;51.378;6.736;2023-02-11T13:11:48;9.20;99.90
59999;DHT22;45859;51.378;6.736;2023-02-11T13:14:29;9.30;99.90
59999;DHT22;45859;51.378;6.736;2023-02-11T13:16:57;9.40;99.90
59999;DHT22;45859;51.378;6.736;2023-02-11T13:22:23;9.50;99.90
59999;DHT22;45859;51.378;6.736;2023-02-11T13:28:02;9.50;99.90
59999;DHT22;45859;51.378;6.736;2023-02-11T13:30:34;9.50;99.90
59999;DHT22;45859;51.378;6.736;2023-02-11T13:33:03;9.50;99.90
59999;DHT22;45859;51.378;6.736;2023-02-11T13:35:36;9.50;99.90
59999;DHT22;45859;51.378;6.736;2023-02-11T13:38:04;9.50;99.90
59999;DHT22;45859;51.378;6.736;2023-02-11T13:40:36;9.50;99.90
59999;DHT22;45859;51.378;6.736;2023-02-11T13:43:05;9.50;99.90
59999;DHT22;45859;51.378;6.736;2023-02-11T13:45:44;9.60;99.90
59999;DHT22;45859;51.378;6.736;2023-02-11T13:48:25;9.50;99.90
59999;DHT22;45859;51.378;6.736;2023-02-11T13:51:15;9.60;99.90
59999;DHT22;45859;51.378;6.736;2023-02-11T13:53:50;9.50;99.90
59999;DHT22;45859;51.378;6.736;2023-02-11T13:58:55;9.40;99.90
59999;DHT22;45859;51.378;6.736;2023-02-11T14:04:23;9.50;99.90
59999;DHT22;45859;51.378;6.736;2023-02-11T14:08:03;9.50;99.90
59999;DHT22;45859;51.378;6.736;2023-02-11T14:10:50;9.50;99.90
59999;DHT22;45859;51.378;6.736;2023-02-11T14:13:26;9.60;99.90
59999;DHT22;45859;51.378;6.736;2023-02-11T14:16:10;9.60;99.90
59999;DHT22;45859;51.378;6.736;2023-02-11T14:19:00;9.60;99.90
59999;DHT22;45859;51.378;6.736;2023-02-11T14:26:58;9.70;99.90
59999;DHT22;45859;51.378;6.736;2023-02-11T14:29:59;9.70;99.90
59999;DHT22;45859;51.378;6.736;2023-02-11T14:38:32;9.70;99.90
59999;DHT22;45859;51.378;6.736;2023-02-11T14:41:12;9.50;99.90
59999;DHT22;45859;51.378;6.736;2023-02-11T14:43:44;9.50;99.90
59999;DHT22;45859;51.378;6.736;2023-02-11T14:46:14;9.40;99.90
59999;DHT22;45859;51.378;6.736;2023-02-11T14:48:47;9.40;99.90
59999;DHT22;45859;51.378;6.736;2023-02-11T14:51:42;9.30;99.90
59999;DHT22;45859;51.378;6.736;2023-02-11T14:54:13;9.20;99.90
59999;DHT22;45859;51.378;6.736;2023-02-11T14:56:41;9.10;99.90
59999;DHT22;45859;51.378;6.736;2023-02-11T14:59:19;9.20;99.90
59999;DHT22;45859;51.378;6.736;2023-02-11T15:01:50;9.30;99.90
59999;DHT22;45859;51.378;6.736;2023-02-11T15:04:28;9.40;99.90
59999;DHT22;45859;51.378;6.736;2023-02-11T15:06:55;9.40;99.90
59999;DHT22;45859;51.378;6.736;2023-02-11T15:09:36;9.50;99.90
59999;DHT22;45859;51.378;6.736;2023-02-11T15:12:04;9.50;99.90
59999;DHT22;45859;51.378;6.736;2023-02-11T15:14:34;9.50;99.90
59999;DHT22;45859;51.378;6.736;2023-02-11T15:17:06;9.60;99.90
59999;DHT22;45859;51.378;6.736;2023-02-11T15:19:39;9.60;99.90
59999;DHT22;45859;51.378;6.736;2023-02-11T15:22:18;9.60;99.90
59999;DHT22;45859;51.378;6.736;2023-02-11T15:27:43;9.60;99.90
59999;DHT22;45859;51.378;6.736;2023-02-11T15:32:48;9.50;99.90
59999;DHT22;45859;51.378;6.736;2023-02-11T15:35:15;9.50;99.90
59999;DHT22;45859;51.378;6.736;2023-02-11T15:37:42;9.50;99.90
59999;DHT22;45859;51.378;6.736;2023-02-11T15:40:16;9.40;99.90
59999;DHT22;45859;51.378;6.736;2023-02-11T15:43:01;9.40;99.90
59999;DHT22;45859;51.378;6.736;2023-02-11T15:45:34;9.40;99.90
59999;DHT22;45859;51.378;6.736;2023-02-11T15:50:33;9.40;99.90
59999;DHT22;45859;51.378;6.736;2023-02-11T15:55:41;9.30;99.90
59999;DHT22;45859;51.378;6.736;2023-02-11T15:58:08;9.40;99.90
59999;DHT22;45859;51.378;6.736;2023-02-11T16:00:37;9.40;99.90
59999;DHT22;45859;51.378;6.736;2023-02-11T16:03:19;9.40;99.90
59999;DHT22;45859;51.378;6.736;2023-02-11T16:05:46;9.30;99.90
59999;DHT22;45859;51.378;6.736;2023-02-11T16:08:24;9.30;99.90
59999;DHT22;45859;51.378;6.736;2023-02-11T16:11:01;9.20;99.90
59999;DHT22;45859;51.378;6.736;2023-02-11T16:13:43;9.20;99.90
59999;DHT22;45859;51.378;6.736;2023-02-11T16:16:38;9.20;99.90
59999;DHT22;45859;51.378;6.736;2023-02-11T16:19:04;9.20;99.90
59999;DHT22;45859;51.378;6.736;2023-02-11T16:21:33;9.10;99.90
59999;DHT22;45859;51.378;6.736;2023-02-11T16:24:05;9.10;99.90
59999;DHT22;45859;51.378;6.736;2023-02-11T16:26:33;9.00;99.90
59999;DHT22;45859;51.378;6.736;2023-02-11T16:29:10;9.10;99.90
59999;DHT22;45859;51.378;6.736;2023-02-11T16:31:40;9.10;99.90
59999;DHT22;45859;51.378;6.736;2023-02-11T16:34:19;9.10;99.90
59999;DHT22;45859;51.378;6.736;2023-02-11T16:36:46;9.00;99.90
59999;DHT22;45859;51.378;6.736;2023-02-11T16:39:12;9.00;99.90
59999;DHT22;45859;51.378;6.736;2023-02-11T16:41:38;9.00;99.90
59999;DHT22;45859;51.378;6.736;2023-02-11T16:44:04;9.00;99.90
59999;DHT22;45859;51.378;6.736;2023-02-11T16:46:31;9.00;99.90
59999;DHT22;45859;51.378;6.736;2023-02-11T16:49:05;9.00;99.90
59999;DHT22;45859;51.378;6.736;2023-02-11T16:51:32;9.00;99.90
59999;DHT22;45859;51.378;6.736;2023-02-11T16:53:58;9.00;99.90
59999;DHT22;45859;51.378;6.736;2023-02-11T16:56:25;8.90;99.90
59999;DHT22;45859;51.378;6.736;2023-02-11T16:58:51;9.00;99.90
59999;DHT22;45859;51.378;6.736;2023-02-11T17:01:16;8.90;99.90
59999;DHT22;45859;51.378;6.736;2023-02-11T17:03:42;8.80;99.90
59999;DHT22;45859;51.378;6.736;2023-02-11T17:06:09;8.90;99.90
59999;DHT22;45859;51.378;6.736;2023-02-11T17:08:36;8.90;99.90
59999;DHT22;45859;51.378;6.736;2023-02-11T17:11:02;8.90;99.90
59999;DHT22;45859;51.378;6.736;2023-02-11T17:13:28;8.90;99.90
59999;DHT22;45859;51.378;6.736;2023-02-11T17:15:53;9.00;99.90
59999;DHT22;45859;51.378;6.736;2023-02-11T17:18:19;8.90;99.90
59999;DHT22;45859;51.378;6.736;2023-02-11T17:20:45;8.90;99.90
59999;DHT22;45859;51.378;6.736;2023-02-11T17:23:10;8.90;99.90
59999;DHT22;45859;51.378;6.736;2023-02-11T17:25:36;8.90;99.90
59999;DHT22;45859;51.378;6.736;2023-02-11T17:28:07;8.90;99.90
59999;DHT22;45859;51.378;6.736;2023-02-11T17:30:33;8.90;99.90
59999;DHT22;45859;51.378;6.736;2023-02-11T17:32:59;8.90;99.90
59999;DHT22;45859;51.378;6.736;2023-02-11T17:35:24;8.90;99.90
59999;DHT22;45859;51.378;6.736;2023-02-11T17:37:50;8.90;99.90
59999;DHT22;45859;51.378;6.736;2023-02-11T17:40:16;8.90;99.90
59999;DHT22;45859;51.378;6.736;2023-02-11T17:42:41;8.90;99.90
59999;DHT22;45859;51.378;6.736;2023-02-11T17:45:07;8.90;99.90
59999;DHT22;45859;51.378;6.736;2023-02-11T17:47:33;8.90;99.90
59999;DHT22;45859;51.378;6.736;2023-02-11T17:49:59;8.90;99.90
59999;DHT22;45859;51.378;6.736;2023-02-11T17:52:25;8.90;99.90
59999;DHT22;45859;51.378;6.736;2023-02-11T17:54:52;8.90;99.90
59999;DHT22;45859;51.378;6.736;2023-02-11T17:57:18;8.90;99.90
59999;DHT22;45859;51.378;6.736;2023-02-11T17:59:44;8.90;99.90
59999;DHT22;45859;51.378;6.736;2023-02-11T18:02:11;8.80;99.90
59999;DHT22;45859;51.378;6.736;2023-02-11T18:04:37;8.80;99.90
59999;DHT22;45859;51.378;6.736;2023-02-11T18:07:03;8.80;99.90
59999;DHT22;45859;51.378;6.736;2023-02-11T18:09:29;8.80;99.90
59999;DHT22;45859;51.378;6.736;2023-02-11T18:11:54;8.80;99.90
59999;DHT22;45859;51.378;6.736;2023-02-11T18:14:20;8.80;99.90
59999;DHT22;45859;51.378;6.736;2023-02-11T18:16:52;8.80;99.90
59999;DHT22;45859;51.378;6.736;2023-02-11T18:19:18;8.80;99.90
59999;DHT22;45859;51.378;6.736;2023-02-11T18:21:44;8.80;99.90
59999;DHT22;45859;51.378;6.736;2023-02-11T18:24:13;8.80;99.90